Time;durP1;ratioP1;P1;durP2;ratioP2;P2;SDS_P1;SDS_P2;PMS_P1;PMS_P2;Temp;Humidity;BMP_temperature;BMP_pressure;BME280_temperature;BME280_humidity;BME280_pressure;Samples;Min_cycle;Max_cycle;Signal;HPM_P1;HPM_P2
2023/05/29 00:02:07;;;;;;;2.25;2.05;;;14.30;78.30;;;;;;5044812;28;20032;-74
2023/05/29 00:04:33;;;;;;;2.80;2.13;;;14.20;78.40;;;;;;5035331;28;20029;-74
2023/05/29 00:07:01;;;;;;;3.00;2.22;;;14.20;78.70;;;;;;5048604;28;20047;-75
2023/05/29 00:09:29;;;;;;;2.30;2.10;;;14.10;78.80;;;;;;5040744;28;20032;-76
2023/05/29 00:11:55;;;;;;;2.13;1.92;;;14.10;78.90;;;;;;5040025;28;20108;-75
2023/05/29 00:14:22;;;;;;;2.20;2.00;;;14.10;79.20;;;;;;5027903;28;20064;-75
2023/05/29 00:16:48;;;;;;;2.25;2.10;;;14.10;79.40;;;;;;5031626;28;20072;-75
2023/05/29 00:19:16;;;;;;;2.65;2.00;;;14.10;79.80;;;;;;5039041;28;20017;-74
2023/05/29 00:21:43;;;;;;;2.00;1.80;;;14.00;80.10;;;;;;5033963;28;20021;-75
2023/05/29 00:24:08;;;;;;;2.95;2.22;;;14.00;80.50;;;;;;5034720;28;20033;-74
2023/05/29 00:26:34;;;;;;;2.22;2.03;;;14.00;81.60;;;;;;5038164;28;20021;-74
2023/05/29 00:29:00;;;;;;;2.10;1.90;;;13.90;81.30;;;;;;5052785;28;20488;-74
2023/05/29 00:31:26;;;;;;;2.85;1.88;;;13.90;81.90;;;;;;5046307;28;20072;-74
2023/05/29 00:33:51;;;;;;;2.95;2.40;;;13.90;82.40;;;;;;5039709;28;20025;-74
2023/05/29 00:36:18;;;;;;;4.55;2.90;;;13.90;82.80;;;;;;5035892;28;20179;-74
2023/05/29 00:38:44;;;;;;;3.75;2.53;;;13.80;83.50;;;;;;5048254;28;20118;-74
2023/05/29 00:41:15;;;;;;;3.92;3.30;;;13.70;84.00;;;;;;5055580;28;20121;-75
2023/05/29 00:43:41;;;;;;;7.07;3.95;;;13.70;84.60;;;;;;5050744;28;20533;-75
2023/05/29 00:46:07;;;;;;;5.05;3.70;;;13.60;85.00;;;;;;5058773;28;20048;-75
2023/05/29 00:48:33;;;;;;;3.92;3.15;;;13.60;85.40;;;;;;5041331;28;20085;-74
2023/05/29 00:50:59;;;;;;;5.03;3.70;;;13.50;85.50;;;;;;5048061;28;20034;-74
2023/05/29 00:53:25;;;;;;;5.13;3.72;;;13.50;85.70;;;;;;5060954;22;20128;-77
2023/05/29 00:55:52;;;;;;;5.63;3.67;;;13.50;85.60;;;;;;5047867;28;20062;-77
2023/05/29 00:58:17;;;;;;;4.45;3.45;;;13.50;85.60;;;;;;5021176;28;20367;-77
2023/05/29 01:00:43;;;;;;;4.72;3.35;;;13.40;85.80;;;;;;5019600;28;20025;-77
2023/05/29 01:03:14;;;;;;;4.30;3.22;;;13.40;86.10;;;;;;5017210;28;20040;-78
2023/05/29 01:05:41;;;;;;;3.65;2.90;;;13.50;86.30;;;;;;5013596;28;20033;-77
2023/05/29 01:08:06;;;;;;;4.75;3.50;;;13.50;86.30;;;;;;5015703;28;20048;-76
2023/05/29 01:10:34;;;;;;;3.97;3.13;;;13.50;86.50;;;;;;5013736;28;20050;-77
2023/05/29 01:13:10;;;;;;;2.97;2.67;;;13.40;86.60;;;;;;5011946;28;20025;-76
2023/05/29 01:15:44;;;;;;;4.25;3.50;;;13.40;86.60;;;;;;5014750;28;20060;-77
2023/05/29 01:18:26;;;;;;;4.13;2.65;;;13.40;86.60;;;;;;4999007;28;20036;-76
2023/05/29 01:21:22;;;;;;;3.38;3.00;;;13.40;86.80;;;;;;5014695;28;20050;-77
2023/05/29 01:24:00;;;;;;;2.70;2.50;;;13.40;87.20;;;;;;5014159;28;20025;-77
2023/05/29 01:26:30;;;;;;;3.38;2.50;;;13.40;87.60;;;;;;5020356;28;21441;-77
2023/05/29 01:29:00;;;;;;;3.45;2.50;;;13.30;88.10;;;;;;4995577;28;20121;-77
2023/05/29 01:31:27;;;;;;;3.13;2.40;;;13.30;88.80;;;;;;4998234;28;20443;-77
2023/05/29 01:33:59;;;;;;;3.28;2.53;;;13.30;89.10;;;;;;5010556;28;20030;-77
2023/05/29 01:36:26;;;;;;;2.85;2.08;;;13.20;89.70;;;;;;5013302;28;20113;-77
2023/05/29 01:38:54;;;;;;;3.65;2.75;;;13.20;90.50;;;;;;5015321;28;20360;-78
2023/05/29 01:41:21;;;;;;;2.97;2.40;;;13.20;90.50;;;;;;5013772;28;20034;-77
2023/05/29 01:43:48;;;;;;;3.25;2.70;;;13.10;90.70;;;;;;5013180;28;20129;-77
2023/05/29 01:46:15;;;;;;;2.75;2.30;;;13.10;90.90;;;;;;5012683;28;20057;-77
2023/05/29 01:48:42;;;;;;;2.80;2.35;;;13.10;91.10;;;;;;5017356;28;20489;-77
2023/05/29 01:51:08;;;;;;;3.10;2.33;;;13.00;91.30;;;;;;5015387;28;20415;-77
2023/05/29 01:53:34;;;;;;;2.78;2.22;;;13.00;91.50;;;;;;5014590;28;20116;-78
2023/05/29 01:56:00;;;;;;;3.00;2.30;;;13.00;91.70;;;;;;5014477;28;20103;-77
2023/05/29 01:58:27;;;;;;;2.95;2.63;;;13.00;91.90;;;;;;5015301;28;20030;-77
2023/05/29 02:00:55;;;;;;;2.63;2.38;;;13.00;92.20;;;;;;5015493;28;20044;-77
2023/05/29 02:03:21;;;;;;;3.20;2.45;;;13.00;92.40;;;;;;5017523;28;20022;-77
2023/05/29 02:05:47;;;;;;;3.53;2.42;;;12.90;92.40;;;;;;5014603;28;20041;-77
2023/05/29 02:08:12;;;;;;;2.78;2.38;;;12.90;92.60;;;;;;5015094;28;20460;-77
2023/05/29 02:10:38;;;;;;;2.38;2.10;;;12.80;92.70;;;;;;5016855;28;20093;-78
2023/05/29 02:13:04;;;;;;;2.58;2.35;;;12.80;93.00;;;;;;5016789;28;20091;-77
2023/05/29 02:15:29;;;;;;;2.65;2.33;;;12.80;93.10;;;;;;5013571;28;20022;-77
2023/05/29 02:17:55;;;;;;;2.80;1.98;;;12.70;93.20;;;;;;5016481;28;20022;-77
2023/05/29 02:20:21;;;;;;;3.88;2.38;;;12.70;93.50;;;;;;5015625;28;20113;-78
2023/05/29 02:22:47;;;;;;;2.67;2.03;;;12.70;93.60;;;;;;5011316;28;20057;-77
2023/05/29 02:25:12;;;;;;;2.17;1.95;;;12.70;93.70;;;;;;5021132;28;20037;-77
2023/05/29 02:27:38;;;;;;;2.42;1.95;;;12.70;93.80;;;;;;5016232;28;20033;-76
2023/05/29 02:30:05;;;;;;;2.45;2.20;;;12.70;93.90;;;;;;5016242;28;20030;-77
2023/05/29 02:32:31;;;;;;;2.30;1.63;;;12.70;94.00;;;;;;5015498;28;20398;-77
2023/05/29 02:34:57;;;;;;;2.92;2.20;;;12.60;94.00;;;;;;5015748;28;20044;-77
2023/05/29 02:37:25;;;;;;;2.58;2.17;;;12.60;94.00;;;;;;5013571;28;20030;-78
2023/05/29 02:39:51;;;;;;;2.33;2.00;;;12.60;94.10;;;;;;5028453;28;20014;-75
2023/05/29 02:42:17;;;;;;;2.35;2.13;;;12.60;94.20;;;;;;5035443;28;20029;-77
2023/05/29 02:44:43;;;;;;;2.00;1.80;;;12.50;94.30;;;;;;5035087;28;20042;-76
2023/05/29 02:47:09;;;;;;;2.42;2.22;;;12.50;94.50;;;;;;5025000;28;20481;-77
2023/05/29 02:49:34;;;;;;;2.90;2.25;;;12.50;94.50;;;;;;5015518;28;20041;-77
2023/05/29 02:52:00;;;;;;;2.80;2.30;;;12.40;94.70;;;;;;5016191;28;20375;-77
2023/05/29 02:54:26;;;;;;;3.30;2.20;;;12.40;95.00;;;;;;5023730;28;20056;-77
2023/05/29 02:56:52;;;;;;;2.60;2.40;;;12.40;95.20;;;;;;5021212;28;20026;-77
2023/05/29 02:59:18;;;;;;;4.25;3.10;;;12.30;95.40;;;;;;5032127;28;20064;-77
2023/05/29 03:01:45;;;;;;;3.85;2.88;;;12.30;95.60;;;;;;5025535;28;20085;-77
2023/05/29 03:04:11;;;;;;;4.65;3.60;;;12.20;95.70;;;;;;5024804;28;20137;-78
2023/05/29 03:06:36;;;;;;;5.63;3.65;;;12.20;95.90;;;;;;5023964;28;20072;-76
2023/05/29 03:09:05;;;;;;;5.45;4.00;;;12.10;96.00;;;;;;5028566;28;20088;-76
2023/05/29 03:11:32;;;;;;;6.55;3.92;;;12.00;96.10;;;;;;5025873;28;20093;-77
2023/05/29 03:13:58;;;;;;;6.03;4.38;;;11.90;96.30;;;;;;5027730;28;20062;-76
2023/05/29 03:16:25;;;;;;;6.85;4.82;;;11.80;96.40;;;;;;5016404;28;20026;-77
2023/05/29 03:18:50;;;;;;;6.47;4.40;;;11.80;96.50;;;;;;5007965;28;20050;-76
2023/05/29 03:21:16;;;;;;;7.60;5.50;;;11.70;96.60;;;;;;4995340;28;20035;-77
2023/05/29 03:23:42;;;;;;;6.40;4.45;;;11.70;96.80;;;;;;5012670;28;20044;-77
2023/05/29 03:26:08;;;;;;;4.85;3.85;;;11.70;96.90;;;;;;5021244;28;20026;-77
2023/05/29 03:28:34;;;;;;;5.78;4.05;;;11.60;97.10;;;;;;5013984;28;20037;-77
2023/05/29 03:30:59;;;;;;;6.07;4.03;;;11.60;97.20;;;;;;5015409;28;20470;-78
2023/05/29 03:33:25;;;;;;;5.00;4.13;;;11.50;97.30;;;;;;5022650;28;20022;-77
2023/05/29 03:35:51;;;;;;;6.25;4.70;;;11.50;97.50;;;;;;5017787;28;20030;-75
2023/05/29 03:38:17;;;;;;;5.97;4.35;;;11.50;97.60;;;;;;5017361;28;20037;-74
2023/05/29 03:40:42;;;;;;;6.32;4.30;;;11.50;97.70;;;;;;5027771;28;20022;-74
2023/05/29 03:43:08;;;;;;;5.65;4.18;;;11.50;97.70;;;;;;5033321;28;20056;-74
2023/05/29 03:45:37;;;;;;;6.85;4.85;;;11.50;97.70;;;;;;5013759;28;20102;-74
2023/05/29 03:48:02;;;;;;;6.47;4.72;;;11.50;97.70;;;;;;5021113;28;20093;-73
2023/05/29 03:50:28;;;;;;;7.55;4.90;;;11.50;97.80;;;;;;5034731;28;20094;-75
2023/05/29 03:52:54;;;;;;;7.57;4.72;;;11.50;97.80;;;;;;5034095;28;20026;-74
2023/05/29 03:55:20;;;;;;;9.73;5.18;;;11.50;97.90;;;;;;5031136;28;20030;-74
2023/05/29 03:57:45;;;;;;;12.35;6.70;;;11.50;98.00;;;;;;5014453;28;20018;-75
2023/05/29 04:00:12;;;;;;;8.32;5.53;;;11.50;98.10;;;;;;5012716;28;20073;-74
2023/05/29 04:02:38;;;;;;;8.52;4.93;;;11.50;98.20;;;;;;5011024;28;20026;-75
2023/05/29 04:05:08;;;;;;;7.70;5.30;;;11.50;98.20;;;;;;5011339;28;20057;-73
2023/05/29 04:07:38;;;;;;;7.57;4.88;;;11.50;98.30;;;;;;5012166;28;20101;-73
2023/05/29 04:10:06;;;;;;;8.25;5.32;;;11.60;98.30;;;;;;5015255;28;20021;-74
2023/05/29 04:12:32;;;;;;;6.90;4.72;;;11.60;98.40;;;;;;5015517;28;20040;-73
2023/05/29 04:14:58;;;;;;;6.10;4.65;;;11.60;98.30;;;;;;5014677;28;20080;-75
2023/05/29 04:17:24;;;;;;;7.47;4.82;;;11.70;98.30;;;;;;5014455;28;20033;-74
2023/05/29 04:19:50;;;;;;;6.55;4.05;;;11.80;98.30;;;;;;5015575;28;20026;-73
2023/05/29 04:22:15;;;;;;;6.40;4.43;;;11.80;98.10;;;;;;5014949;28;20461;-73
2023/05/29 04:24:44;;;;;;;5.72;4.38;;;11.90;98.00;;;;;;5015043;28;20032;-73
2023/05/29 04:27:14;;;;;;;5.25;4.50;;;11.90;97.90;;;;;;5013632;28;20026;-73
2023/05/29 04:29:43;;;;;;;6.20;4.53;;;11.90;97.80;;;;;;5015797;28;20443;-72
2023/05/29 04:32:11;;;;;;;8.02;4.53;;;12.00;97.70;;;;;;5015214;28;20038;-73
2023/05/29 04:34:38;;;;;;;5.88;4.55;;;12.00;97.60;;;;;;5014541;28;20024;-72
2023/05/29 04:37:05;;;;;;;7.47;5.30;;;12.00;97.60;;;;;;5015619;28;20026;-74
2023/05/29 04:39:31;;;;;;;7.25;4.60;;;12.10;97.60;;;;;;5014049;28;20229;-73
2023/05/29 04:41:58;;;;;;;7.40;4.35;;;12.10;97.50;;;;;;5024305;28;20141;-73
2023/05/29 04:44:29;;;;;;;7.50;4.82;;;12.10;97.40;;;;;;5016517;28;20026;-77
2023/05/29 04:46:54;;;;;;;6.43;4.63;;;12.20;97.40;;;;;;5019505;28;20026;-75
2023/05/29 04:49:21;;;;;;;7.20;4.60;;;12.30;97.20;;;;;;5018920;28;20068;-75
2023/05/29 04:51:47;;;;;;;5.57;4.03;;;12.30;97.10;;;;;;5028400;28;20390;-76
2023/05/29 04:54:12;;;;;;;5.88;3.80;;;12.40;97.10;;;;;;5025256;28;20037;-76
2023/05/29 04:56:39;;;;;;;5.78;3.83;;;12.50;97.10;;;;;;5018167;28;20018;-76
2023/05/29 04:59:06;;;;;;;5.18;3.78;;;12.60;96.70;;;;;;5014927;28;20018;-76
2023/05/29 05:01:33;;;;;;;6.13;4.28;;;12.70;96.60;;;;;;5015047;28;20040;-75
2023/05/29 05:04:00;;;;;;;6.30;4.22;;;12.80;96.40;;;;;;5013894;28;20055;-76
2023/05/29 05:06:25;;;;;;;5.60;3.78;;;12.90;96.30;;;;;;5015173;28;20026;-76
2023/05/29 05:08:52;;;;;;;4.28;3.28;;;13.90;96.80;;;;;;5015255;28;20076;-77
2023/05/29 05:11:22;;;;;;;3.95;2.90;;;15.70;93.80;;;;;;5015124;28;20026;-75
2023/05/29 05:13:48;;;;;;;4.30;3.05;;;17.20;90.10;;;;;;5014800;28;20133;-76
2023/05/29 05:16:14;;;;;;;4.20;3.22;;;18.40;82.40;;;;;;5013348;28;20390;-74
2023/05/29 05:18:40;;;;;;;4.35;3.25;;;;;;;;;;5014388;28;20094;-74
2023/05/29 05:21:06;;;;;;;3.28;2.53;;;20.10;73.70;;;;;;5014678;28;20102;-75
2023/05/29 05:23:32;;;;;;;3.00;2.70;;;21.10;71.20;;;;;;5018257;28;20528;-75
2023/05/29 05:25:58;;;;;;;3.42;2.83;;;22.10;66.00;;;;;;5026185;28;20105;-75
2023/05/29 05:28:23;;;;;;;3.03;2.58;;;22.70;61.80;;;;;;5035570;28;20024;-75
2023/05/29 05:30:49;;;;;;;2.10;1.88;;;23.20;59.70;;;;;;5034610;28;20169;-74
2023/05/29 05:33:15;;;;;;;2.70;2.50;;;23.80;57.50;;;;;;5035368;28;20090;-75
2023/05/29 05:35:41;;;;;;;2.47;2.28;;;24.20;55.80;;;;;;5015886;28;20113;-74
2023/05/29 05:38:07;;;;;;;2.50;2.30;;;24.40;54.10;;;;;;5014626;28;20029;-76
2023/05/29 05:40:33;;;;;;;2.53;2.33;;;24.80;53.20;;;;;;5014790;28;20021;-76
2023/05/29 05:42:59;;;;;;;2.75;2.50;;;25.00;51.60;;;;;;5015068;28;20036;-76
2023/05/29 05:45:24;;;;;;;2.42;2.20;;;25.10;51.40;;;;;;5013600;28;20072;-74
2023/05/29 05:47:50;;;;;;;3.22;3.03;;;25.70;50.90;;;;;;5013222;28;20026;-74
2023/05/29 05:50:16;;;;;;;2.80;2.45;;;26.00;49.30;;;;;;5014802;28;20025;-75
2023/05/29 05:52:41;;;;;;;2.75;2.55;;;26.40;48.50;;;;;;5013351;28;20387;-76
2023/05/29 05:55:07;;;;;;;2.47;2.28;;;26.30;48.50;;;;;;5029633;28;20544;-75
2023/05/29 05:57:35;;;;;;;2.78;2.58;;;26.50;48.50;;;;;;5033446;28;20120;-76
2023/05/29 06:00:11;;;;;;;2.30;2.03;;;27.10;47.90;;;;;;5033291;28;20483;-76
2023/05/29 06:02:37;;;;;;;2.60;2.20;;;27.70;46.20;;;;;;5033732;28;20029;-76
2023/05/29 06:05:03;;;;;;;2.10;1.90;;;27.70;45.40;;;;;;5028104;28;20490;-76
2023/05/29 06:07:30;;;;;;;2.00;1.80;;;28.00;45.30;;;;;;5014503;28;20030;-74
2023/05/29 06:09:55;;;;;;;1.92;1.83;;;28.30;44.20;;;;;;5014277;28;20026;-74
2023/05/29 06:12:21;;;;;;;2.38;2.10;;;28.20;44.30;;;;;;5014012;28;20037;-74
2023/05/29 06:14:47;;;;;;;2.47;2.28;;;28.00;43.60;;;;;;5014007;28;20097;-76
2023/05/29 06:17:13;;;;;;;3.55;3.10;;;27.90;43.70;;;;;;5013898;28;20037;-76
2023/05/29 06:19:38;;;;;;;3.42;2.90;;;27.70;43.90;;;;;;5013584;28;20022;-76
2023/05/29 06:22:05;;;;;;;3.97;3.30;;;27.60;44.00;;;;;;5013566;28;20065;-76
2023/05/29 06:24:30;;;;;;;4.35;3.22;;;27.70;43.50;;;;;;5017413;28;20022;-75
2023/05/29 06:26:56;;;;;;;3.45;3.13;;;27.60;43.30;;;;;;5017931;28;20100;-75
2023/05/29 06:29:21;;;;;;;2.72;2.53;;;27.50;43.50;;;;;;5014001;28;20030;-76
2023/05/29 06:31:47;;;;;;;3.45;2.80;;;27.50;43.90;;;;;;5010157;28;20232;-75
2023/05/29 06:34:13;;;;;;;3.78;3.30;;;27.70;43.20;;;;;;5013165;28;20057;-75
2023/05/29 06:36:40;;;;;;;3.45;3.15;;;27.30;43.40;;;;;;5013396;28;20026;-76
2023/05/29 06:39:05;;;;;;;3.35;3.05;;;27.20;44.10;;;;;;5013355;28;20045;-76
2023/05/29 06:41:31;;;;;;;3.20;2.90;;;27.30;44.00;;;;;;5013419;28;20045;-76
2023/05/29 06:43:57;;;;;;;3.10;2.80;;;27.40;44.50;;;;;;5011936;28;20089;-75
2023/05/29 06:46:22;;;;;;;3.78;3.40;;;27.70;44.10;;;;;;5035347;28;20032;-76
2023/05/29 06:48:48;;;;;;;3.50;3.20;;;28.00;43.00;;;;;;5029372;28;20010;-78
2023/05/29 06:51:14;;;;;;;5.28;4.00;;;27.80;42.70;;;;;;5015548;28;20045;-76
2023/05/29 06:53:41;;;;;;;4.78;3.53;;;27.50;42.80;;;;;;5021376;28;20136;-76
2023/05/29 06:56:07;;;;;;;3.58;3.20;;;27.30;43.50;;;;;;5025707;28;20091;-76
2023/05/29 06:58:33;;;;;;;5.57;3.83;;;27.10;43.60;;;;;;5025216;28;20034;-76
2023/05/29 07:01:00;;;;;;;3.78;3.33;;;26.90;43.40;;;;;;5014417;28;20096;-76
2023/05/29 07:03:26;;;;;;;5.10;3.90;;;26.90;43.90;;;;;;5014833;28;20026;-76
2023/05/29 07:05:52;;;;;;;4.35;3.35;;;27.00;44.10;;;;;;5015330;28;20344;-77
2023/05/29 07:08:18;;;;;;;3.70;3.33;;;27.30;44.20;;;;;;5016856;28;20036;-76
2023/05/29 07:10:44;;;;;;;4.30;3.33;;;27.90;43.50;;;;;;5015055;28;20030;-75
2023/05/29 07:13:13;;;;;;;5.47;4.15;;;27.30;42.60;;;;;;5016110;28;20134;-76
2023/05/29 07:15:39;;;;;;;6.57;4.28;;;25.50;44.30;;;;;;5016467;28;20052;-76
2023/05/29 07:18:05;;;;;;;5.30;4.25;;;;;;;;;;5016297;28;20030;-75
2023/05/29 07:20:31;;;;;;;5.05;4.05;;;;;;;;;;5028365;28;20525;-76
2023/05/29 07:22:57;;;;;;;6.32;3.97;;;21.00;53.10;;;;;;5018433;28;20152;-77
2023/05/29 07:25:22;;;;;;;4.75;3.67;;;20.30;55.30;;;;;;5026722;28;20036;-76
2023/05/29 07:27:48;;;;;;;5.65;3.78;;;19.90;57.00;;;;;;5016690;28;20029;-76
2023/05/29 07:30:14;;;;;;;6.65;4.20;;;19.70;57.90;;;;;;5012855;28;20072;-76
2023/05/29 07:32:40;;;;;;;9.13;6.25;;;19.40;58.70;;;;;;5013483;28;20026;-76
2023/05/29 07:35:06;;;;;;;7.07;4.95;;;19.10;59.40;;;;;;5018952;28;20072;-78
2023/05/29 07:37:34;;;;;;;7.00;4.88;;;18.90;60.30;;;;;;5027105;28;20085;-76
2023/05/29 07:39:59;;;;;;;5.40;4.32;;;18.90;61.30;;;;;;5022034;28;20037;-76
2023/05/29 07:42:25;;;;;;;6.40;4.28;;;18.90;61.60;;;;;;5016167;28;20026;-76
2023/05/29 07:45:01;;;;;;;4.65;3.85;;;19.00;62.20;;;;;;5023689;28;20545;-76
2023/05/29 07:51:19;;;;;;;6.05;4.18;;;19.10;62.70;;;;;;5026633;28;20021;-76
2023/05/29 07:54:17;;;;;;;4.85;3.95;;;19.10;63.10;;;;;;5029599;28;20081;-74
2023/05/29 07:56:43;;;;;;;7.88;5.35;;;19.20;63.10;;;;;;5045480;28;20057;-78
2023/05/29 07:59:09;;;;;;;8.13;4.82;;;19.30;63.70;;;;;;5018695;28;20018;-77
2023/05/29 08:01:36;;;;;;;7.50;5.38;;;19.30;64.10;;;;;;5016171;28;20072;-78
2023/05/29 08:04:02;;;;;;;8.43;5.68;;;19.40;63.90;;;;;;5013295;28;20026;-77
2023/05/29 08:06:28;;;;;;;7.93;5.22;;;19.30;63.90;;;;;;5012613;28;20045;-77
2023/05/29 08:08:53;;;;;;;6.88;4.80;;;19.40;64.10;;;;;;5011915;28;20114;-79
2023/05/29 08:11:21;;;;;;;7.07;4.50;;;19.50;64.20;;;;;;5013236;28;20058;-77
2023/05/29 08:13:46;;;;;;;9.10;5.20;;;19.60;63.80;;;;;;5012722;28;20109;-76
2023/05/29 08:16:14;;;;;;;6.97;4.57;;;19.60;63.50;;;;;;5010889;28;20088;-76
2023/05/29 08:18:40;;;;;;;8.15;5.07;;;19.60;63.70;;;;;;5012931;28;20026;-76
2023/05/29 08:21:06;;;;;;;9.07;5.45;;;19.60;64.00;;;;;;5014032;28;20442;-76
2023/05/29 08:23:32;;;;;;;8.05;4.82;;;19.70;63.90;;;;;;5018850;28;20498;-76
2023/05/29 08:25:57;;;;;;;6.57;4.30;;;19.80;63.60;;;;;;5024004;28;20121;-77
2023/05/29 08:28:23;;;;;;;7.07;4.18;;;19.80;63.40;;;;;;5029639;28;20113;-77
2023/05/29 08:30:49;;;;;;;5.00;3.75;;;20.00;63.60;;;;;;5012715;28;20030;-76
2023/05/29 08:33:15;;;;;;;7.63;4.47;;;20.20;62.90;;;;;;5012105;28;20025;-74
2023/05/29 08:35:41;;;;;;;5.10;4.00;;;20.30;62.60;;;;;;5014426;28;20508;-77
2023/05/29 08:38:06;;;;;;;8.52;5.15;;;20.50;62.60;;;;;;5019207;28;20026;-76
2023/05/29 08:40:32;;;;;;;6.40;4.43;;;20.60;61.50;;;;;;5018378;28;20022;-77
2023/05/29 08:43:21;;;;;;;6.03;4.13;;;20.50;61.60;;;;;;5015844;28;20037;-75
2023/05/29 08:45:52;;;;;;;4.85;3.65;;;20.60;61.90;;;;;;5015403;28;20490;-77
2023/05/29 08:48:20;;;;;;;4.88;3.70;;;20.70;61.90;;;;;;5012016;28;20049;-76
2023/05/29 08:50:46;;;;;;;7.35;5.38;;;20.80;61.40;;;;;;5011525;28;20038;-76
2023/05/29 08:53:13;;;;;;;6.05;4.43;;;20.90;60.60;;;;;;5016491;28;20088;-76
2023/05/29 08:55:39;;;;;;;7.95;4.72;;;20.80;60.80;;;;;;5023274;28;20053;-76
2023/05/29 08:58:06;;;;;;;8.65;4.90;;;20.80;60.80;;;;;;5014652;28;20112;-77
2023/05/29 09:00:32;;;;;;;7.45;4.65;;;20.90;60.70;;;;;;5015700;28;20034;-76
2023/05/29 09:02:59;;;;;;;6.68;4.43;;;21.10;60.20;;;;;;5016744;28;20030;-77
2023/05/29 09:05:29;;;;;;;6.60;4.72;;;21.20;60.00;;;;;;5015461;28;20018;-77
2023/05/29 09:07:55;;;;;;;5.18;4.35;;;21.20;59.80;;;;;;5016013;28;20087;-77
2023/05/29 09:10:22;;;;;;;6.63;4.50;;;21.30;59.90;;;;;;5015934;28;20026;-77
2023/05/29 09:12:50;;;;;;;6.03;4.10;;;21.30;59.40;;;;;;5016905;28;20088;-77
2023/05/29 09:15:23;;;;;;;6.43;4.00;;;21.40;59.80;;;;;;5020691;28;20014;-77
2023/05/29 09:17:53;;;;;;;7.85;5.22;;;21.60;58.70;;;;;;5017344;28;20022;-76
2023/05/29 09:20:23;;;;;;;7.28;4.40;;;21.70;58.60;;;;;;5015333;28;20036;-77
2023/05/29 09:23:09;;;;;;;10.77;5.35;;;21.70;58.70;;;;;;5016130;28;20056;-77
2023/05/29 09:25:41;;;;;;;8.25;4.00;;;21.80;58.00;;;;;;5019145;28;20095;-77
2023/05/29 09:28:08;;;;;;;5.90;4.18;;;21.90;58.10;;;;;;5020576;28;20049;-76
2023/05/29 09:30:54;;;;;;;7.07;4.75;;;22.00;57.90;;;;;;5018559;28;20026;-77
2023/05/29 09:33:20;;;;;;;5.65;4.30;;;22.10;57.10;;;;;;5016166;28;20041;-76
2023/05/29 09:35:48;;;;;;;7.78;4.43;;;22.10;57.40;;;;;;5014034;28;20121;-76
2023/05/29 09:38:18;;;;;;;4.93;3.72;;;22.10;56.80;;;;;;5015402;28;20026;-76
2023/05/29 09:40:47;;;;;;;5.43;3.58;;;22.00;57.70;;;;;;5015355;28;20513;-77
2023/05/29 09:43:16;;;;;;;5.95;4.10;;;22.20;57.50;;;;;;5015133;28;20037;-75
2023/05/29 09:45:43;;;;;;;6.03;4.60;;;;;;;;;;5015040;28;20029;-77
2023/05/29 09:48:23;;;;;;;5.38;4.15;;;22.60;55.90;;;;;;5013239;28;20018;-76
2023/05/29 09:50:49;;;;;;;5.20;4.28;;;22.70;55.50;;;;;;5011926;28;20033;-78
2023/05/29 09:53:24;;;;;;;7.80;4.97;;;22.80;54.60;;;;;;5017492;28;20067;-76
2023/05/29 09:55:54;;;;;;;6.70;4.32;;;22.80;54.60;;;;;;5020684;28;20057;-75
2023/05/29 09:58:21;;;;;;;7.07;4.25;;;22.80;54.40;;;;;;5034768;28;20033;-75
2023/05/29 10:00:48;;;;;;;8.85;4.20;;;22.90;52.60;;;;;;5023775;28;20463;-77
2023/05/29 10:03:14;;;;;;;8.50;4.75;;;22.90;52.00;;;;;;5017820;28;20029;-78
2023/05/29 10:05:41;;;;;;;6.55;4.10;;;22.90;51.10;;;;;;5019918;28;20634;-78
2023/05/29 10:08:14;;;;;;;5.75;4.03;;;22.90;50.50;;;;;;5018184;28;20028;-78
2023/05/29 10:10:46;;;;;;;7.68;4.07;;;22.90;50.80;;;;;;5018193;28;20026;-78
2023/05/29 10:13:13;;;;;;;5.30;3.50;;;23.10;51.70;;;;;;5019470;28;20028;-78
2023/05/29 10:15:42;;;;;;;8.55;4.78;;;23.30;51.80;;;;;;5018152;28;20029;-78
2023/05/29 10:18:31;;;;;;;6.85;4.63;;;23.30;51.50;;;;;;5019088;28;20396;-78
2023/05/29 10:20:58;;;;;;;6.40;3.90;;;23.40;49.80;;;;;;5018576;28;20025;-77
2023/05/29 10:23:25;;;;;;;4.70;3.70;;;23.60;49.90;;;;;;5026048;28;20048;-77
2023/05/29 10:26:10;;;;;;;7.13;4.18;;;23.70;49.40;;;;;;5025199;28;20026;-76
2023/05/29 10:28:41;;;;;;;6.50;3.90;;;23.90;49.20;;;;;;5035183;28;20016;-75
2023/05/29 10:31:32;;;;;;;6.35;3.88;;;24.00;48.80;;;;;;5036295;28;20082;-76
2023/05/29 10:34:08;;;;;;;4.80;3.83;;;24.10;48.20;;;;;;5035919;28;20069;-75
2023/05/29 10:36:44;;;;;;;6.88;4.25;;;24.10;48.00;;;;;;5037416;28;20041;-74
2023/05/29 10:39:11;;;;;;;5.47;3.63;;;24.20;48.30;;;;;;5038001;28;20082;-75
2023/05/29 10:41:40;;;;;;;6.60;4.28;;;24.20;47.70;;;;;;5037661;28;20033;-77
2023/05/29 10:44:31;;;;;;;7.38;4.43;;;24.10;48.10;;;;;;5035510;28;20002;-75
2023/05/29 10:47:00;;;;;;;4.22;3.83;;;24.10;46.80;;;;;;5023284;28;20021;-75
2023/05/29 10:49:26;;;;;;;6.60;3.83;;;24.00;47.30;;;;;;5015991;28;20045;-76
2023/05/29 10:51:52;;;;;;;5.68;4.60;;;24.20;47.10;;;;;;5015895;28;20026;-76
2023/05/29 10:54:25;;;;;;;5.70;3.78;;;24.20;46.90;;;;;;5015572;28;20108;-76
2023/05/29 10:56:53;;;;;;;5.50;4.20;;;24.10;47.00;;;;;;5019166;28;20036;-77
2023/05/29 10:59:20;;;;;;;5.85;3.63;;;24.20;47.20;;;;;;5017430;28;20035;-80
2023/05/29 11:01:45;;;;;;;5.30;3.78;;;24.30;47.30;;;;;;5013778;28;20033;-76
2023/05/29 11:04:16;;;;;;;4.45;3.35;;;24.50;47.20;;;;;;5014551;28;20037;-76
2023/05/29 11:06:43;;;;;;;6.10;3.63;;;24.80;46.90;;;;;;5014716;28;20793;-75
2023/05/29 11:09:28;;;;;;;5.30;3.65;;;25.00;46.30;;;;;;4995080;28;20518;-77
2023/05/29 11:12:35;;;;;;;6.97;4.20;;;24.90;46.20;;;;;;5011455;28;20035;-77
2023/05/29 11:15:06;;;;;;;4.28;3.65;;;24.80;45.70;;;;;;4996554;28;20022;-78
2023/05/29 11:17:38;;;;;;;6.20;3.80;;;24.70;46.80;;;;;;4995609;28;20026;-77
2023/05/29 11:20:07;;;;;;;5.53;3.50;;;24.90;46.20;;;;;;4999904;28;20569;-76
2023/05/29 11:22:48;;;;;;;5.30;3.75;;;24.80;45.60;;;;;;5017084;28;20045;-76
2023/05/29 11:25:15;;;;;;;6.37;4.10;;;24.80;45.40;;;;;;5032422;28;20025;-78
2023/05/29 11:27:41;;;;;;;5.53;3.33;;;24.80;45.40;;;;;;5017062;28;20026;-75
2023/05/29 11:30:07;;;;;;;4.68;3.40;;;24.90;44.90;;;;;;5014862;28;20025;-75
2023/05/29 11:32:36;;;;;;;4.25;3.55;;;25.00;44.80;;;;;;5021478;28;20058;-75
2023/05/29 11:35:09;;;;;;;6.40;4.18;;;25.30;44.40;;;;;;5024823;28;20022;-77
2023/05/29 11:37:39;;;;;;;4.18;3.50;;;25.10;43.60;;;;;;5015275;28;20018;-77
2023/05/29 11:40:09;;;;;;;4.43;3.60;;;25.20;44.00;;;;;;5014984;28;20030;-77
2023/05/29 11:42:50;;;;;;;4.85;4.05;;;25.10;44.10;;;;;;5015128;28;20032;-77
2023/05/29 11:45:21;;;;;;;4.93;3.60;;;25.10;44.70;;;;;;5012672;28;20093;-78
2023/05/29 11:47:57;;;;;;;4.57;3.40;;;25.10;45.00;;;;;;5014236;28;20034;-76
2023/05/29 11:50:26;;;;;;;4.35;3.25;;;25.20;45.00;;;;;;5015195;28;20089;-77
2023/05/29 11:52:52;;;;;;;3.90;3.42;;;25.30;44.20;;;;;;5016566;28;20451;-78
2023/05/29 11:55:19;;;;;;;7.38;4.07;;;25.30;42.90;;;;;;5025603;28;20025;-76
2023/05/29 11:57:45;;;;;;;5.15;4.30;;;25.20;43.40;;;;;;5022663;28;20076;-76
2023/05/29 12:00:15;;;;;;;4.60;3.60;;;25.20;43.40;;;;;;5015267;28;20026;-77
2023/05/29 12:02:43;;;;;;;5.75;3.63;;;25.30;43.90;;;;;;5014690;28;20026;-77
2023/05/29 12:05:09;;;;;;;4.18;3.55;;;25.40;43.20;;;;;;5012270;28;20026;-76
2023/05/29 12:07:35;;;;;;;4.35;3.67;;;25.40;43.00;;;;;;5025586;28;20030;-76
2023/05/29 12:10:14;;;;;;;7.22;4.35;;;25.60;43.50;;;;;;5029645;28;20101;-78
2023/05/29 12:12:41;;;;;;;4.32;3.80;;;25.50;43.00;;;;;;5013425;28;20084;-77
2023/05/29 12:15:08;;;;;;;4.10;3.10;;;25.40;43.50;;;;;;5013935;28;20487;-77
2023/05/29 12:17:35;;;;;;;5.70;3.67;;;25.50;43.80;;;;;;4992812;28;20480;-76
2023/05/29 12:20:01;;;;;;;5.20;3.55;;;;;;;;;;4994729;28;20077;-76
2023/05/29 12:22:46;;;;;;;4.78;3.83;;;25.60;43.20;;;;;;4998582;28;20037;-76
2023/05/29 12:25:16;;;;;;;5.25;4.15;;;25.70;42.90;;;;;;5000351;28;20033;-76
2023/05/29 12:27:43;;;;;;;5.88;3.75;;;25.60;42.50;;;;;;5010614;28;20021;-76
2023/05/29 12:30:15;;;;;;;4.22;3.63;;;25.60;42.70;;;;;;5027880;28;20018;-77
2023/05/29 12:32:43;;;;;;;4.97;3.60;;;25.60;42.60;;;;;;5028883;28;20030;-76
2023/05/29 12:35:22;;;;;;;4.88;3.78;;;25.60;42.70;;;;;;5020704;28;20505;-76
2023/05/29 12:38:11;;;;;;;10.32;4.75;;;25.50;43.60;;;;;;5018298;28;20196;-77
2023/05/29 12:40:38;;;;;;;5.28;3.63;;;25.60;42.00;;;;;;5019700;28;20014;-75
2023/05/29 12:43:06;;;;;;;7.15;3.90;;;25.60;42.50;;;;;;5018880;28;20026;-77
2023/05/29 12:45:33;;;;;;;5.30;3.67;;;25.50;42.40;;;;;;5005800;28;20030;-76
2023/05/29 12:48:07;;;;;;;8.07;3.78;;;25.50;42.40;;;;;;4999564;28;20056;-78
2023/05/29 12:50:40;;;;;;;4.85;3.67;;;25.40;41.30;;;;;;4997076;28;20030;-76
2023/05/29 12:53:06;;;;;;;7.63;3.72;;;25.30;41.20;;;;;;5009609;28;20037;-76
2023/05/29 12:55:44;;;;;;;4.93;3.90;;;25.30;41.00;;;;;;5027714;28;20047;-76
2023/05/29 12:58:11;;;;;;;4.32;3.08;;;25.30;41.10;;;;;;5014682;28;20025;-75